EPDA

Darłówek Naval Air Base Airport

Darłowo, Poland
TAF EPDA 212300Z 2200/2209 20010KT 7000 BKN015 TEMPO 2200/2206 4000 SN BR BKN008 PROB40 TEMPO 2200/2206 1500 SHSN BR BKN004 BKN010TCU
Issued Valid From Valid To
Jan-21 @ 23:00 UTC
(2 hours ago)
Jan-22 @ 00:00 UTC
(59 minutes ago)
Jan-22 @ 09:00 UTC
(in 8 hours)
Jan-22 @ 00:00 to Jan-22 @ 09:00
TAF EPDA 212300Z 2200/2209 20010KT 7000 BKN015
Wind Visibility Clouds
200° at 10 knots 7,001 meters
  • Broken at 1,500' AGL
Temporary  (Probability 40%) Jan-22 @ 00:00 to Jan-22 @ 06:00
PROB40 TEMPO 2200/2206 1500 SHSN BR BKN004 BKN010TCU
Visibility Clouds Conditions
1,497 meters
  • Broken at 400' AGL
  • Broken at 1,000' AGL
  • Snow
  • Mist
Temporary Jan-22 @ 00:00 to Jan-22 @ 06:00
TEMPO 2200/2206 4000 SN BR BKN008
Visibility Clouds Conditions
4,007 meters
  • Broken at 800' AGL
  • Snow
  • Mist
TAF EPDA 212300Z 2200/2209 20010KT 7000 BKN015 TEMPO 2200/2206 4000 SN BR BKN008 PROB40 TEMPO 2200/2206 1500 SHSN BR BKN004 BKN010TCU
Issued Jan-21 @ 23:00 UTC
(2 hours ago)
Valid From Jan-22 @ 00:00 UTC
(59 minutes ago)
Valid To Jan-22 @ 09:00 UTC
(in 8 hours)
Jan-22 @ 00:00 - Jan-22 @ 09:00
Wind Visibility
200° at 10 knots 7,001 meters
Clouds
  • Broken at 1,500' AGL
Probability 40% Temporary Jan-22 @ 00:00 - Jan-22 @ 06:00
Clouds
  • Broken at 400' AGL
  • Broken at 1,000' AGL
Conditions
  • Snow
  • Mist
Temporary Jan-22 @ 00:00 - Jan-22 @ 06:00
Clouds
  • Broken at 800' AGL
Conditions
  • Snow
  • Mist